Iliamna, Alaska
Current Conditions -  °F | °C
As of 10:53 PM on Tuesday 21 Oct 2014 (Local Time) from PAIL Reporting Station
Clear Clear  
Wind Chill: 22°   Ceiling: Unl
Heat Index: 30°   Visibility: 10mi
Dew Point: 27°   Wind: 8mph
Humidity: 88%   Direction: 340°NNW
Pressure: 29.32"   Gusts: NA
Location:  59.76°N, 154.83°W
Report Text: PAIL 220653Z AUTO 34007KT 10SM CLR M01/M03 A2932 RMK AO2 SLP931 T10111028 TSNO
Loading
Personal Weather Stations






























Interactive Weather Map
Tropical Storm Tracking
New forecast layout! Learn more

10-Day Weather Forecast

Advertisements
Track Severe Weather on mobile